createdAt,value
2023-10-17T00:02:11.901Z,11.75
2023-10-17T00:04:43.125Z,8.63
2023-10-17T00:07:14.093Z,9.23
2023-10-17T00:09:43.667Z,10.07
2023-10-17T00:12:27.350Z,5.95
2023-10-17T00:15:02.169Z,6.90
2023-10-17T00:17:30.671Z,6.38
2023-10-17T00:19:59.472Z,13.02
2023-10-17T00:22:29.821Z,8.63
2023-10-17T00:25:09.247Z,10.82
2023-10-17T00:27:37.628Z,6.72
2023-10-17T00:30:08.550Z,8.05
2023-10-17T00:32:42.656Z,8.45
2023-10-17T00:35:15.002Z,5.85
2023-10-17T00:37:52.564Z,6.80
2023-10-17T00:40:45.940Z,9.57
2023-10-17T00:43:14.303Z,6.13
2023-10-17T00:45:43.117Z,5.50
2023-10-17T00:48:18.988Z,6.63
2023-10-17T00:50:49.900Z,19.13
2023-10-17T00:53:21.507Z,6.72
2023-10-17T00:55:56.606Z,7.22
2023-10-17T00:58:25.917Z,5.55
2023-10-17T01:01:10.773Z,7.97
2023-10-17T01:03:44.628Z,7.45
2023-10-17T01:06:25.247Z,11.27
2023-10-17T01:08:56.054Z,6.70
2023-10-17T01:11:29.263Z,9.18
2023-10-17T01:13:58.887Z,5.10
2023-10-17T01:16:27.617Z,6.63
2023-10-17T01:18:57.377Z,8.38
2023-10-17T01:21:27.668Z,6.65
2023-10-17T01:23:57.458Z,9.75
2023-10-17T01:26:29.766Z,7.68
2023-10-17T01:28:58.119Z,11.25
2023-10-17T01:31:26.864Z,4.88
2023-10-17T01:33:57.055Z,5.38
2023-10-17T01:36:25.840Z,13.48
2023-10-17T01:38:56.092Z,11.30
2023-10-17T01:41:26.545Z,8.30
2023-10-17T01:43:54.963Z,7.55
2023-10-17T01:46:23.930Z,7.40
2023-10-17T01:48:55.690Z,7.47
2023-10-17T01:51:25.671Z,14.18
2023-10-17T01:53:54.504Z,11.80
2023-10-17T01:56:27.027Z,5.22
2023-10-17T01:59:00.879Z,8.10
2023-10-17T02:01:31.449Z,17.38
2023-10-17T02:04:03.755Z,8.50
2023-10-17T02:06:34.258Z,10.07
2023-10-17T02:09:19.271Z,5.60
2023-10-17T02:11:52.190Z,9.63
2023-10-17T02:14:22.060Z,9.45
2023-10-17T02:16:51.205Z,9.02
2023-10-17T02:19:21.001Z,11.23
2023-10-17T02:21:52.191Z,13.38
2023-10-17T02:24:22.011Z,8.20
2023-10-17T02:26:57.764Z,9.00
2023-10-17T02:29:30.536Z,7.22
2023-10-17T02:32:00.104Z,8.98
2023-10-17T02:34:31.285Z,10.38
2023-10-17T02:37:01.852Z,5.72
2023-10-17T02:39:30.413Z,11.45
2023-10-17T02:42:08.442Z,6.82
2023-10-17T02:44:45.125Z,12.52
2023-10-17T02:47:14.192Z,10.00
2023-10-17T02:49:45.079Z,11.82
2023-10-17T02:52:18.346Z,6.25
2023-10-17T02:54:57.770Z,12.82
2023-10-17T02:57:28.471Z,11.60
2023-10-17T03:00:10.216Z,8.13
2023-10-17T03:02:39.090Z,7.90
2023-10-17T03:05:13.326Z,10.27
2023-10-17T03:07:43.870Z,8.10
2023-10-17T03:10:21.700Z,8.20
2023-10-17T03:12:55.606Z,9.00
2023-10-17T03:15:30.780Z,6.93
2023-10-17T03:18:02.380Z,5.80
2023-10-17T03:20:42.489Z,11.05
2023-10-17T03:23:10.497Z,7.80
2023-10-17T03:25:40.780Z,8.82
2023-10-17T03:28:10.166Z,9.88
2023-10-17T03:30:40.173Z,6.90
2023-10-17T03:33:10.011Z,6.72
2023-10-17T03:35:47.097Z,11.27
2023-10-17T03:38:16.703Z,9.57
2023-10-17T03:40:53.267Z,11.20
2023-10-17T03:43:23.692Z,13.45
2023-10-17T03:45:58.182Z,11.75
2023-10-17T03:48:30.303Z,11.85
2023-10-17T03:51:10.289Z,9.35
2023-10-17T03:53:46.178Z,9.88
2023-10-17T03:56:24.307Z,16.00
2023-10-17T03:58:58.449Z,9.27
2023-10-17T04:01:28.878Z,14.52
2023-10-17T04:03:58.211Z,30.67
2023-10-17T04:06:40.769Z,11.05
2023-10-17T04:09:22.463Z,13.82
2023-10-17T04:11:54.491Z,15.05
2023-10-17T04:14:30.847Z,15.60
2023-10-17T04:17:00.637Z,10.40
2023-10-17T04:19:31.846Z,12.73
2023-10-17T04:22:20.520Z,10.02
2023-10-17T04:24:51.170Z,15.48
2023-10-17T04:27:24.040Z,19.00
2023-10-17T04:29:52.744Z,13.90
2023-10-17T04:32:22.506Z,14.23
2023-10-17T04:34:50.961Z,11.93
2023-10-17T04:37:25.955Z,13.73
2023-10-17T04:39:58.456Z,9.73
2023-10-17T04:42:48.212Z,8.73
2023-10-17T04:45:15.634Z,10.00
2023-10-17T04:47:47.044Z,8.30
2023-10-17T04:50:14.450Z,7.85
2023-10-17T04:52:43.965Z,9.05
2023-10-17T04:55:19.855Z,10.65
2023-10-17T04:57:57.572Z,13.88
2023-10-17T05:00:43.762Z,9.82
2023-10-17T05:03:28.228Z,10.23
2023-10-17T05:06:16.894Z,8.88
2023-10-17T05:09:02.032Z,8.50
2023-10-17T05:11:48.227Z,8.93
2023-10-17T05:14:34.184Z,7.95
2023-10-17T05:17:19.931Z,18.23
2023-10-17T05:20:07.100Z,16.77
2023-10-17T05:22:52.912Z,9.07
2023-10-17T05:25:41.929Z,10.05
2023-10-17T05:28:27.719Z,12.40
2023-10-17T05:31:13.409Z,11.05
2023-10-17T05:33:58.976Z,10.73
2023-10-17T05:36:45.969Z,19.33
2023-10-17T05:39:31.841Z,12.70
2023-10-17T05:42:17.494Z,13.30
2023-10-17T05:45:03.216Z,7.90
2023-10-17T05:47:54.090Z,7.90
2023-10-17T05:50:39.886Z,21.02
2023-10-17T05:53:23.429Z,14.70
2023-10-17T05:56:09.831Z,9.27
2023-10-17T05:58:55.579Z,8.57
2023-10-17T06:01:41.657Z,12.80
2023-10-17T06:04:27.499Z,11.10
2023-10-17T06:07:13.409Z,14.00
2023-10-17T06:10:00.754Z,14.43
2023-10-17T06:12:46.605Z,8.23
2023-10-17T06:15:32.362Z,7.50
2023-10-17T06:18:02.795Z,15.20
2023-10-17T06:20:45.037Z,10.40
2023-10-17T06:23:25.491Z,9.63
2023-10-17T06:26:06.752Z,13.98
2023-10-17T06:28:36.748Z,11.73
2023-10-17T06:31:30.145Z,11.60
2023-10-17T06:34:01.916Z,19.67
2023-10-17T06:36:30.029Z,10.18
2023-10-17T06:38:59.150Z,11.50
2023-10-17T06:41:39.152Z,15.48
2023-10-17T06:44:09.507Z,15.65
2023-10-17T06:46:49.684Z,11.40
2023-10-17T06:49:31.627Z,21.63
2023-10-17T06:52:11.792Z,32.20
2023-10-17T06:54:42.408Z,17.25
2023-10-17T06:57:20.376Z,32.70
2023-10-17T06:59:51.866Z,27.52
2023-10-17T07:02:29.260Z,22.98
2023-10-17T07:05:01.256Z,25.83
2023-10-17T07:07:32.919Z,27.77
2023-10-17T07:10:17.754Z,22.02
2023-10-17T07:12:51.824Z,17.48
2023-10-17T07:15:21.125Z,17.80
2023-10-17T07:17:55.753Z,36.72
2023-10-17T07:20:51.090Z,13.60
2023-10-17T07:23:20.762Z,13.43
2023-10-17T07:25:50.636Z,14.13
2023-10-17T07:28:23.573Z,12.13
2023-10-17T07:30:59.325Z,16.27
2023-10-17T07:33:27.883Z,11.60
2023-10-17T07:35:57.953Z,13.10
2023-10-17T07:38:29.373Z,14.93
2023-10-17T07:41:10.594Z,17.35
2023-10-17T07:43:45.147Z,21.83
2023-10-17T07:46:18.430Z,19.42
2023-10-17T07:48:50.009Z,17.50
2023-10-17T07:51:18.859Z,17.48
2023-10-17T07:53:48.195Z,20.30
2023-10-17T07:56:22.673Z,18.65
2023-10-17T07:59:00.500Z,19.85
2023-10-17T08:01:33.542Z,16.15
2023-10-17T08:04:15.041Z,12.40
2023-10-17T08:06:43.826Z,19.45
2023-10-17T08:11:56.322Z,14.02
2023-10-17T08:14:33.634Z,19.90
2023-10-17T08:17:01.995Z,13.33
2023-10-17T08:19:37.487Z,14.02
2023-10-17T08:22:18.451Z,16.70
2023-10-17T08:24:52.838Z,18.48
2023-10-17T08:27:35.377Z,15.23
2023-10-17T08:30:19.306Z,9.57
2023-10-17T08:33:11.274Z,13.95
2023-10-17T08:35:40.360Z,11.45
2023-10-17T08:38:08.136Z,22.48
2023-10-17T08:40:42.427Z,15.00
2023-10-17T08:43:12.852Z,16.33
2023-10-17T08:45:45.277Z,17.65
2023-10-17T08:48:13.891Z,21.00
2023-10-17T08:50:42.982Z,20.25
2023-10-17T08:53:15.400Z,14.05
2023-10-17T08:55:43.995Z,15.73
2023-10-17T08:58:12.707Z,9.77
2023-10-17T09:00:56.704Z,16.00
2023-10-17T09:03:30.019Z,13.07
2023-10-17T09:06:07.900Z,16.52
2023-10-17T09:08:53.501Z,18.75
2023-10-17T09:11:34.854Z,29.27
2023-10-17T09:14:18.702Z,14.07
2023-10-17T09:16:52.722Z,19.15
2023-10-17T09:19:26.642Z,14.45
2023-10-17T09:21:55.236Z,16.05
2023-10-17T09:24:37.068Z,24.90
2023-10-17T09:27:12.177Z,11.40
2023-10-17T09:29:48.552Z,18.38
2023-10-17T09:32:35.338Z,14.18
2023-10-17T09:35:15.504Z,15.65
2023-10-17T09:37:45.466Z,19.83
2023-10-17T09:40:15.251Z,12.52
2023-10-17T09:42:46.598Z,16.63
2023-10-17T09:45:32.369Z,13.30
2023-10-17T09:48:08.037Z,12.00
2023-10-17T09:50:38.878Z,16.77
2023-10-17T09:53:16.096Z,14.90
2023-10-17T09:55:49.144Z,14.82
2023-10-17T09:58:22.025Z,14.38
2023-10-17T10:00:54.401Z,12.90
2023-10-17T10:03:29.592Z,15.32
2023-10-17T10:06:22.643Z,14.25
2023-10-17T10:08:51.268Z,11.70
2023-10-17T10:11:19.544Z,14.43
2023-10-17T10:14:05.087Z,9.88
2023-10-17T10:16:50.480Z,9.23
2023-10-17T10:19:20.278Z,7.00
2023-10-17T10:21:56.936Z,11.43
2023-10-17T10:24:28.656Z,10.68
2023-10-17T10:27:21.275Z,11.30
2023-10-17T10:29:54.031Z,6.38
2023-10-17T10:32:34.277Z,5.38
2023-10-17T10:35:06.987Z,12.20
2023-10-17T10:37:50.041Z,12.95
2023-10-17T10:40:25.535Z,7.20
2023-10-17T10:42:55.585Z,7.50
2023-10-17T10:45:33.451Z,14.40
2023-10-17T10:48:02.622Z,9.00
2023-10-17T10:50:34.895Z,3.83
2023-10-17T10:53:04.620Z,5.77
2023-10-17T10:55:33.040Z,10.43
2023-10-17T10:58:05.797Z,14.33
2023-10-17T11:00:34.432Z,7.47
2023-10-17T11:03:02.864Z,11.00
2023-10-17T11:05:34.837Z,13.05
2023-10-17T11:08:03.730Z,10.05
2023-10-17T11:10:32.992Z,12.05
2023-10-17T11:13:03.129Z,7.68
2023-10-17T11:15:33.712Z,11.68
2023-10-17T11:18:08.533Z,6.47
2023-10-17T11:20:41.748Z,8.30
2023-10-17T11:23:13.373Z,7.37
2023-10-17T11:25:45.503Z,10.03
2023-10-17T11:28:17.547Z,11.10
2023-10-17T11:30:46.737Z,9.00
2023-10-17T11:33:19.253Z,10.75
2023-10-17T11:35:52.943Z,8.30
2023-10-17T11:38:43.646Z,14.63
2023-10-17T11:41:16.679Z,11.18
2023-10-17T11:43:52.702Z,5.90
2023-10-17T11:46:30.353Z,7.70
2023-10-17T11:49:24.652Z,12.40
2023-10-17T11:52:00.012Z,7.10
2023-10-17T11:57:14.511Z,8.48
2023-10-17T11:59:56.785Z,5.43
2023-10-17T12:02:25.339Z,7.93
2023-10-17T12:04:54.621Z,11.45
2023-10-17T12:07:24.417Z,7.07
2023-10-17T12:09:55.447Z,5.47
2023-10-17T12:12:24.667Z,7.97
2023-10-17T12:14:54.686Z,7.60
2023-10-17T12:17:24.904Z,4.22
2023-10-17T12:19:53.668Z,7.18
2023-10-17T12:22:23.369Z,4.43
2023-10-17T12:24:51.669Z,3.50
2023-10-17T12:27:21.583Z,1.90
2023-10-17T12:29:50.102Z,2.92
2023-10-17T12:32:18.894Z,2.10
2023-10-17T12:34:47.851Z,4.88
2023-10-17T12:37:18.733Z,1.90
2023-10-17T12:39:48.791Z,4.00
2023-10-17T12:42:17.526Z,1.73
2023-10-17T12:44:45.763Z,1.88
2023-10-17T12:47:14.254Z,3.97
2023-10-17T12:49:45.259Z,8.13
2023-10-17T12:52:17.583Z,1.80
2023-10-17T12:54:50.419Z,1.35
2023-10-17T12:57:20.462Z,1.52
2023-10-17T12:59:48.761Z,0.90
2023-10-17T13:02:16.972Z,1.15
2023-10-17T13:04:48.089Z,3.05
2023-10-17T13:07:17.113Z,1.05
2023-10-17T13:09:45.436Z,2.58
2023-10-17T13:12:15.989Z,1.10
2023-10-17T13:14:44.294Z,0.80
2023-10-17T13:17:14.721Z,1.08
2023-10-17T13:19:44.978Z,3.25
2023-10-17T13:22:18.681Z,1.80
2023-10-17T13:24:49.263Z,2.95
2023-10-17T13:27:21.055Z,5.82
2023-10-17T13:29:51.177Z,3.42
2023-10-17T13:32:19.600Z,1.83
2023-10-17T13:34:48.314Z,3.25
2023-10-17T13:37:16.619Z,4.78
2023-10-17T13:39:44.909Z,4.50
2023-10-17T13:42:14.774Z,5.43
2023-10-17T13:44:45.119Z,6.45
2023-10-17T13:47:13.436Z,4.00
2023-10-17T13:49:41.755Z,2.22
2023-10-17T13:52:19.052Z,3.35
2023-10-17T13:54:50.441Z,1.40
2023-10-17T13:57:18.811Z,2.67
2023-10-17T13:59:54.467Z,2.08
2023-10-17T14:02:26.003Z,1.63
2023-10-17T14:04:54.355Z,2.20
2023-10-17T14:07:22.654Z,1.55
2023-10-17T14:09:56.775Z,1.98
2023-10-17T14:12:25.442Z,1.20
2023-10-17T14:14:55.249Z,1.30
2023-10-17T14:17:23.485Z,1.80
2023-10-17T14:20:06.316Z,1.92
2023-10-17T14:22:45.691Z,1.52
2023-10-17T14:25:15.325Z,3.03
2023-10-17T14:27:42.578Z,3.30
2023-10-17T14:30:13.539Z,1.95
2023-10-17T14:32:40.916Z,3.75
2023-10-17T14:35:10.296Z,3.15
2023-10-17T14:37:41.205Z,1.70
2023-10-17T14:40:13.427Z,1.30
2023-10-17T14:42:46.588Z,1.42
2023-10-17T14:45:16.677Z,1.95
2023-10-17T14:47:44.950Z,4.80
2023-10-17T14:50:15.922Z,8.60
2023-10-17T14:52:44.262Z,2.60
2023-10-17T14:55:16.395Z,1.63
2023-10-17T14:57:46.955Z,2.60
2023-10-17T15:00:17.491Z,1.80
2023-10-17T15:02:46.422Z,4.65
2023-10-17T15:05:14.808Z,3.42
2023-10-17T15:07:45.340Z,6.75
2023-10-17T15:10:17.348Z,4.47
2023-10-17T15:15:21.415Z,5.97
2023-10-17T15:17:52.333Z,5.47
2023-10-17T15:20:20.603Z,5.57
2023-10-17T15:22:49.102Z,5.63
2023-10-17T15:25:19.461Z,3.80
2023-10-17T15:27:48.903Z,13.00
2023-10-17T15:30:34.159Z,18.70
2023-10-17T15:33:04.890Z,15.02
2023-10-17T15:35:34.840Z,8.32
2023-10-17T15:38:03.175Z,8.30
2023-10-17T15:40:31.487Z,6.95
2023-10-17T15:42:59.762Z,8.77
2023-10-17T15:45:28.216Z,13.40
2023-10-17T15:47:56.649Z,8.77
2023-10-17T15:50:26.510Z,7.70
2023-10-17T15:52:54.996Z,7.18
2023-10-17T15:55:26.697Z,16.27
2023-10-17T15:57:55.044Z,7.38
2023-10-17T16:00:23.425Z,6.97
2023-10-17T16:02:51.832Z,10.07
2023-10-17T16:05:20.254Z,6.85
2023-10-17T16:07:49.929Z,7.70
2023-10-17T16:10:18.912Z,10.88
2023-10-17T16:12:48.021Z,11.88
2023-10-17T16:15:22.480Z,10.82
2023-10-17T16:17:53.719Z,7.65
2023-10-17T16:20:22.235Z,7.07
2023-10-17T16:22:55.075Z,7.45
2023-10-17T16:25:25.756Z,17.63
2023-10-17T16:27:54.383Z,15.40
2023-10-17T16:30:22.838Z,9.02
2023-10-17T16:32:54.593Z,9.27
2023-10-17T16:35:23.173Z,11.48
2023-10-17T16:37:52.914Z,7.07
2023-10-17T16:40:24.167Z,9.55
2023-10-17T16:42:52.516Z,14.75
2023-10-17T16:45:21.119Z,14.60
2023-10-17T16:47:50.770Z,10.68
2023-10-17T16:50:20.038Z,15.30
2023-10-17T16:52:48.461Z,15.00
2023-10-17T16:55:20.224Z,23.52
2023-10-17T16:57:51.349Z,15.50
2023-10-17T17:00:20.097Z,15.18
2023-10-17T17:02:48.420Z,10.48
2023-10-17T17:05:16.836Z,10.45
2023-10-17T17:07:45.231Z,17.98
2023-10-17T17:10:20.400Z,9.13
2023-10-17T17:12:54.569Z,8.57
2023-10-17T17:15:23.439Z,11.20
2023-10-17T17:17:56.841Z,11.15
2023-10-17T17:20:33.312Z,15.85
2023-10-17T17:23:06.891Z,19.83
2023-10-17T17:25:39.761Z,14.60
2023-10-17T17:28:11.818Z,11.77
2023-10-17T17:30:43.538Z,13.35
2023-10-17T17:33:12.465Z,9.10
2023-10-17T17:35:40.861Z,10.88
2023-10-17T17:38:22.789Z,9.10
2023-10-17T17:40:52.466Z,9.40
2023-10-17T17:43:20.877Z,14.18
2023-10-17T17:45:52.496Z,6.15
2023-10-17T17:48:20.843Z,16.95
2023-10-17T17:50:50.173Z,37.40
2023-10-17T17:53:24.184Z,27.88
2023-10-17T17:55:53.864Z,23.83
2023-10-17T17:58:25.223Z,20.77
2023-10-17T18:00:55.469Z,17.77
2023-10-17T18:03:24.185Z,10.93
2023-10-17T18:05:52.502Z,12.63
2023-10-17T18:08:20.733Z,13.15
2023-10-17T18:10:53.994Z,11.73
2023-10-17T18:13:29.665Z,10.90
2023-10-17T18:16:01.304Z,9.45
2023-10-17T18:18:38.362Z,12.15
2023-10-17T18:21:08.710Z,9.32
2023-10-17T18:23:38.896Z,13.23
2023-10-17T18:26:17.041Z,11.73
2023-10-17T18:28:50.055Z,9.73
2023-10-17T18:31:22.636Z,10.70
2023-10-17T18:33:56.863Z,10.85
2023-10-17T18:36:25.196Z,15.48
2023-10-17T18:39:03.316Z,12.75
2023-10-17T18:41:32.362Z,15.32
2023-10-17T18:44:02.484Z,15.82
2023-10-17T18:46:30.996Z,16.05
2023-10-17T18:48:59.612Z,13.55
2023-10-17T18:51:28.063Z,18.80
2023-10-17T18:53:56.382Z,15.05
2023-10-17T18:56:24.700Z,12.10
2023-10-17T18:58:53.837Z,12.93
2023-10-17T19:01:23.605Z,14.73
2023-10-17T19:03:53.241Z,17.02
2023-10-17T19:06:21.866Z,14.30
2023-10-17T19:08:50.244Z,15.43
2023-10-17T19:11:18.639Z,19.70
2023-10-17T19:13:53.812Z,15.68
2023-10-17T19:16:29.644Z,19.20
2023-10-17T19:19:05.787Z,13.35
2023-10-17T19:21:42.934Z,14.05
2023-10-17T19:24:14.019Z,12.40
2023-10-17T19:26:45.413Z,11.25
2023-10-17T19:29:14.644Z,11.23
2023-10-17T19:31:48.034Z,9.02
2023-10-17T19:34:16.445Z,13.20
2023-10-17T19:36:45.624Z,9.57
2023-10-17T19:39:16.955Z,16.25
2023-10-17T19:41:46.397Z,11.98
2023-10-17T19:44:14.767Z,13.05
2023-10-17T19:46:47.947Z,11.98
2023-10-17T19:49:17.843Z,9.20
2023-10-17T19:51:53.017Z,11.52
2023-10-17T19:54:21.390Z,15.48
2023-10-17T19:56:49.809Z,8.98
2023-10-17T19:59:18.098Z,8.80
2023-10-17T20:01:48.030Z,12.82
2023-10-17T20:04:16.593Z,10.93
2023-10-17T20:06:45.112Z,10.40
2023-10-17T20:09:16.820Z,10.38
2023-10-17T20:11:46.657Z,8.00
2023-10-17T20:14:15.348Z,8.90
2023-10-17T20:16:44.445Z,10.48
2023-10-17T20:19:15.552Z,8.70
2023-10-17T20:21:43.907Z,8.45
2023-10-17T20:24:13.089Z,7.97
2023-10-17T20:26:41.620Z,9.32
2023-10-17T20:29:13.502Z,8.73
2023-10-17T20:31:41.965Z,8.82
2023-10-17T20:34:11.266Z,6.75
2023-10-17T20:36:41.080Z,6.27
2023-10-17T20:39:09.402Z,5.85
2023-10-17T20:41:39.231Z,5.45
2023-10-17T20:44:07.987Z,10.80
2023-10-17T20:46:36.545Z,8.50
2023-10-17T20:49:05.282Z,6.40
2023-10-17T20:51:34.096Z,7.65
2023-10-17T20:54:05.007Z,8.02
2023-10-17T20:56:41.993Z,5.97
2023-10-17T20:59:10.978Z,12.60
2023-10-17T21:01:39.860Z,6.82
2023-10-17T21:04:09.521Z,9.30
2023-10-17T21:06:37.920Z,8.30
2023-10-17T21:09:07.777Z,11.30
2023-10-17T21:11:37.855Z,11.40
2023-10-17T21:14:06.422Z,8.38
2023-10-17T21:16:34.855Z,6.95
2023-10-17T21:19:03.950Z,8.02
2023-10-17T21:21:33.082Z,7.67
2023-10-17T21:24:02.368Z,5.90
2023-10-17T21:26:32.199Z,7.83
2023-10-17T21:29:00.593Z,8.95
2023-10-17T21:31:29.211Z,7.00
2023-10-17T21:33:57.587Z,12.02
2023-10-17T21:36:26.300Z,8.38
2023-10-17T21:38:57.531Z,8.68
2023-10-17T21:41:26.144Z,10.50
2023-10-17T21:43:55.943Z,10.05
2023-10-17T21:46:27.135Z,11.00
2023-10-17T21:48:55.930Z,10.95
2023-10-17T21:51:24.342Z,10.52
2023-10-17T21:53:52.830Z,12.32
2023-10-17T21:56:21.182Z,11.68
2023-10-17T21:58:50.479Z,16.55
2023-10-17T22:01:23.473Z,10.32
2023-10-17T22:03:52.127Z,12.35
2023-10-17T22:06:26.116Z,11.02
2023-10-17T22:08:57.852Z,12.55
2023-10-17T22:11:26.945Z,15.18
2023-10-17T22:13:56.101Z,15.10
2023-10-17T22:16:25.957Z,23.63
2023-10-17T22:18:56.187Z,18.40
2023-10-17T22:21:28.483Z,17.48
2023-10-17T22:23:56.840Z,14.35
2023-10-17T22:26:26.509Z,16.48
2023-10-17T22:28:56.074Z,18.63
2023-10-17T22:31:25.935Z,18.25
2023-10-17T22:34:01.711Z,22.13
2023-10-17T22:36:30.031Z,15.05
2023-10-17T22:38:58.330Z,12.70
2023-10-17T22:41:28.263Z,13.95
2023-10-17T22:43:59.683Z,14.40
2023-10-17T22:46:29.525Z,13.18
2023-10-17T22:48:58.238Z,14.40
2023-10-17T22:51:29.335Z,13.10
2023-10-17T22:54:01.245Z,14.50
2023-10-17T22:56:29.682Z,15.77
2023-10-17T22:58:58.517Z,15.02
2023-10-17T23:01:28.640Z,13.32
2023-10-17T23:03:57.831Z,16.38
2023-10-17T23:06:26.690Z,13.05
2023-10-17T23:08:54.972Z,18.27
2023-10-17T23:11:27.062Z,12.07
2023-10-17T23:13:57.659Z,11.20
2023-10-17T23:16:26.109Z,15.27
2023-10-17T23:18:56.488Z,12.55
2023-10-17T23:21:24.915Z,16.70
2023-10-17T23:23:53.370Z,10.30
2023-10-17T23:26:21.878Z,11.80
2023-10-17T23:28:50.274Z,9.55
2023-10-17T23:31:27.304Z,16.70
2023-10-17T23:34:05.343Z,15.10
2023-10-17T23:36:34.696Z,11.35
2023-10-17T23:39:11.564Z,13.43
2023-10-17T23:41:41.526Z,11.68
2023-10-17T23:44:24.776Z,14.15
2023-10-17T23:46:59.148Z,15.25
2023-10-17T23:49:31.969Z,13.60
2023-10-17T23:52:08.778Z,13.18
2023-10-17T23:54:55.158Z,12.82
2023-10-17T23:57:23.933Z,14.88
2023-10-17T23:59:52.668Z,15.18
